Time;durP1;ratioP1;P1;durP2;ratioP2;P2;SDS_P1;SDS_P2;PMS_P1;PMS_P2;Temp;Humidity;BMP_temperature;BMP_pressure;BME280_temperature;BME280_humidity;BME280_pressure;Samples;Min_cycle;Max_cycle;Signal;HPM_P1;HPM_P2
2023/04/28 00:02:02;;;;;;;9.20;8.30;;;10.80;99.90;;;;;;5060472;28;20466;-59
2023/04/28 00:04:29;;;;;;;8.60;6.07;;;10.70;99.90;;;;;;5060749;28;20564;-58
2023/04/28 00:06:56;;;;;;;9.43;6.20;;;10.70;99.90;;;;;;5060458;28;20468;-59
2023/04/28 00:09:25;;;;;;;6.23;5.53;;;10.80;99.90;;;;;;5059991;28;20470;-60
2023/04/28 00:11:52;;;;;;;6.27;5.63;;;10.80;99.90;;;;;;5060534;28;20914;-60
2023/04/28 00:14:19;;;;;;;7.93;6.50;;;10.80;99.90;;;;;;5060536;28;20462;-60
2023/04/28 00:16:46;;;;;;;7.50;6.40;;;10.80;99.90;;;;;;5060335;28;20867;-59
2023/04/28 00:19:13;;;;;;;10.93;6.07;;;10.80;99.90;;;;;;5059845;28;20504;-60
2023/04/28 00:21:41;;;;;;;10.40;6.60;;;10.80;99.90;;;;;;5060211;28;20470;-61
2023/04/28 00:24:08;;;;;;;9.90;6.47;;;10.80;99.90;;;;;;5060200;28;20466;-59
2023/04/28 00:26:36;;;;;;;10.00;6.60;;;10.80;99.90;;;;;;5060309;28;20465;-56
2023/04/28 00:29:03;;;;;;;14.20;6.23;;;10.70;99.90;;;;;;5058318;28;20502;-54
2023/04/28 00:31:31;;;;;;;10.03;7.43;;;10.70;99.90;;;;;;5058488;28;20910;-52
2023/04/28 00:33:58;;;;;;;10.80;7.03;;;10.70;99.90;;;;;;5061324;28;20493;-53
2023/04/28 00:36:25;;;;;;;10.80;6.40;;;10.70;99.90;;;;;;5078261;28;20762;-54
2023/04/28 00:38:52;;;;;;;9.13;7.47;;;10.50;99.90;;;;;;5078897;28;20465;-57
2023/04/28 00:41:19;;;;;;;10.00;7.00;;;10.50;99.90;;;;;;5078479;28;20461;-56
2023/04/28 00:43:49;;;;;;;9.43;7.10;;;10.50;99.90;;;;;;5078830;28;20925;-58
2023/04/28 00:46:22;;;;;;;8.60;6.47;;;10.50;99.90;;;;;;5078335;28;20497;-56
2023/04/28 00:48:50;;;;;;;9.43;7.20;;;10.50;99.90;;;;;;5078785;28;21014;-59
2023/04/28 00:51:17;;;;;;;9.10;7.57;;;10.50;99.90;;;;;;5078538;28;20461;-60
2023/04/28 00:53:45;;;;;;;11.03;6.90;;;10.50;99.90;;;;;;5078638;28;20483;-59
2023/04/28 00:56:12;;;;;;;7.60;5.93;;;10.50;99.90;;;;;;5078724;28;20461;-59
2023/04/28 00:58:40;;;;;;;9.73;7.50;;;10.40;99.90;;;;;;5078455;28;20458;-60
2023/04/28 01:01:09;;;;;;;11.40;7.93;;;10.40;99.90;;;;;;5078464;28;20878;-60
2023/04/28 01:03:40;;;;;;;9.23;7.57;;;10.40;99.90;;;;;;5078152;28;20465;-60
2023/04/28 01:06:09;;;;;;;13.80;7.77;;;10.40;99.90;;;;;;5078296;28;20468;-57
2023/04/28 01:08:37;;;;;;;10.30;6.90;;;10.40;99.90;;;;;;5078246;28;20489;-60
2023/04/28 01:11:05;;;;;;;7.70;6.97;;;10.40;99.90;;;;;;5078316;28;20465;-58
2023/04/28 01:13:33;;;;;;;8.83;7.40;;;10.50;99.90;;;;;;5077838;28;20457;-60
2023/04/28 01:16:00;;;;;;;10.43;8.53;;;10.50;99.90;;;;;;5078241;28;20493;-60
2023/04/28 01:18:31;;;;;;;12.23;7.43;;;10.50;99.90;;;;;;5078100;28;20457;-59
2023/04/28 01:20:58;;;;;;;9.10;7.40;;;10.50;99.90;;;;;;5078220;28;20457;-60
2023/04/28 01:23:26;;;;;;;10.67;6.60;;;10.50;99.90;;;;;;5077825;28;20568;-60
2023/04/28 01:25:55;;;;;;;9.90;7.50;;;10.40;99.90;;;;;;5077896;28;20917;-58
2023/04/28 01:28:22;;;;;;;13.20;7.57;;;10.40;99.90;;;;;;5034369;28;1251414;-60
2023/04/28 01:30:49;;;;;;;9.43;7.97;;;10.40;99.90;;;;;;5079228;28;20207;-58
2023/04/28 01:33:16;;;;;;;11.53;8.97;;;10.30;99.90;;;;;;5078877;28;20461;-61
2023/04/28 01:35:43;;;;;;;13.17;8.77;;;10.30;99.90;;;;;;5078691;28;20472;-61
2023/04/28 01:38:11;;;;;;;13.03;8.23;;;10.40;99.90;;;;;;5078898;28;20458;-61
2023/04/28 01:40:38;;;;;;;8.93;7.90;;;10.30;99.90;;;;;;5079020;28;20555;-61
2023/04/28 01:43:07;;;;;;;10.00;7.87;;;10.30;99.90;;;;;;5078573;28;20468;-59
2023/04/28 01:45:34;;;;;;;13.43;8.73;;;10.30;99.90;;;;;;5078541;28;20552;-62
2023/04/28 01:48:01;;;;;;;10.90;8.00;;;10.20;99.90;;;;;;5078733;28;20493;-62
2023/04/28 01:50:28;;;;;;;9.37;8.20;;;10.10;99.90;;;;;;5078742;28;20511;-63
2023/04/28 01:52:56;;;;;;;11.80;9.30;;;10.20;99.90;;;;;;5078442;28;20548;-63
2023/04/28 01:55:23;;;;;;;15.87;9.10;;;10.20;99.90;;;;;;5077978;28;20552;-63
2023/04/28 01:57:50;;;;;;;10.80;8.13;;;10.10;99.90;;;;;;5077301;28;20465;-63
2023/04/28 02:00:19;;;;;;;11.00;9.23;;;10.10;99.90;;;;;;5077217;28;20473;-63
2023/04/28 02:02:46;;;;;;;8.77;7.93;;;10.00;99.90;;;;;;5078239;28;20479;-63
2023/04/28 02:05:13;;;;;;;9.97;8.97;;;10.00;99.90;;;;;;5076348;28;20560;-63
2023/04/28 02:07:40;;;;;;;12.63;10.40;;;10.00;99.90;;;;;;5077989;28;20466;-64
2023/04/28 02:10:08;;;;;;;11.23;9.20;;;10.00;99.90;;;;;;5078196;28;20549;-64
2023/04/28 02:12:35;;;;;;;10.10;9.00;;;9.90;99.90;;;;;;5078007;28;20466;-63
2023/04/28 02:15:03;;;;;;;10.37;9.37;;;10.00;99.90;;;;;;5078067;28;20465;-63
2023/04/28 02:17:32;;;;;;;10.17;9.10;;;9.90;99.90;;;;;;5077583;28;20467;-64
2023/04/28 02:19:59;;;;;;;17.67;9.97;;;9.90;99.90;;;;;;5075965;28;20507;-63
2023/04/28 02:22:26;;;;;;;14.07;9.70;;;9.90;99.90;;;;;;5077964;28;20461;-62
2023/04/28 02:24:53;;;;;;;14.73;10.03;;;9.90;99.90;;;;;;5076148;28;20764;-63
2023/04/28 02:27:21;;;;;;;10.10;9.13;;;9.80;99.90;;;;;;5076232;28;20508;-63
2023/04/28 02:29:48;;;;;;;9.80;8.73;;;9.80;99.90;;;;;;5077538;28;20801;-63
2023/04/28 02:32:15;;;;;;;13.27;9.87;;;9.80;99.90;;;;;;5077801;28;20471;-63
2023/04/28 02:34:43;;;;;;;14.37;10.80;;;9.80;99.90;;;;;;5061629;28;20458;-63
2023/04/28 02:37:10;;;;;;;11.60;10.30;;;9.80;99.90;;;;;;5057344;28;20556;-63
2023/04/28 02:39:38;;;;;;;13.10;10.77;;;9.70;99.90;;;;;;5057231;28;20458;-63
2023/04/28 02:42:06;;;;;;;13.40;10.30;;;9.70;99.90;;;;;;5057350;28;20477;-63
2023/04/28 02:44:33;;;;;;;14.87;9.03;;;9.70;99.90;;;;;;5057439;28;20502;-63
2023/04/28 02:47:00;;;;;;;10.80;9.37;;;9.80;99.90;;;;;;5057773;28;20462;-64
2023/04/28 02:49:27;;;;;;;10.17;9.17;;;9.70;99.90;;;;;;5057129;28;20580;-63
2023/04/28 02:51:56;;;;;;;17.27;9.27;;;9.70;99.90;;;;;;5057702;28;20454;-63
2023/04/28 02:54:27;;;;;;;14.40;9.40;;;9.70;99.90;;;;;;5056953;28;20470;-64
2023/04/28 02:56:54;;;;;;;15.23;9.33;;;9.70;99.90;;;;;;5057567;28;20473;-63
2023/04/28 02:59:22;;;;;;;15.57;9.53;;;9.70;99.90;;;;;;5057377;28;20816;-63
2023/04/28 03:01:50;;;;;;;13.50;9.80;;;9.70;99.90;;;;;;5057255;28;20840;-62
2023/04/28 03:04:18;;;;;;;14.10;9.20;;;9.70;99.90;;;;;;5057205;28;20462;-62
2023/04/28 03:06:45;;;;;;;10.57;9.50;;;9.70;99.90;;;;;;5057435;28;20462;-62
2023/04/28 03:09:14;;;;;;;11.83;9.87;;;9.80;99.90;;;;;;5056686;28;20765;-62
2023/04/28 03:11:41;;;;;;;10.20;9.07;;;9.80;99.90;;;;;;5057306;28;20883;-63
2023/04/28 03:14:08;;;;;;;10.43;9.43;;;9.80;99.90;;;;;;5057341;28;20955;-63
2023/04/28 03:16:36;;;;;;;12.23;8.53;;;9.80;99.90;;;;;;5057232;28;20545;-63
2023/04/28 03:19:03;;;;;;;10.97;9.50;;;9.80;99.90;;;;;;5057142;28;20864;-63
2023/04/28 03:21:31;;;;;;;13.00;9.50;;;9.80;99.90;;;;;;5056877;28;20569;-63
2023/04/28 03:23:58;;;;;;;11.70;10.00;;;9.70;99.90;;;;;;5056841;28;20549;-63
2023/04/28 03:26:27;;;;;;;12.47;10.00;;;9.70;99.90;;;;;;5063909;28;20458;-63
2023/04/28 03:28:55;;;;;;;14.97;10.27;;;9.60;99.90;;;;;;5076333;28;20505;-63
2023/04/28 03:31:23;;;;;;;11.40;9.37;;;9.70;99.90;;;;;;5077047;28;20963;-63
2023/04/28 03:33:50;;;;;;;11.33;9.30;;;9.70;99.90;;;;;;5076907;28;20489;-63
2023/04/28 03:36:17;;;;;;;12.63;9.50;;;9.60;99.90;;;;;;5076927;28;20466;-64
2023/04/28 03:38:44;;;;;;;12.13;9.00;;;9.70;1.00;;;;;;5077299;28;20552;-63
2023/04/28 03:41:12;;;;;;;11.80;9.03;;;9.60;1.00;;;;;;5076669;28;20461;-63
2023/04/28 03:43:40;;;;;;;11.87;10.33;;;9.60;1.00;;;;;;5076577;28;20465;-63
2023/04/28 03:46:08;;;;;;;12.50;10.10;;;9.50;1.00;;;;;;5076812;28;20840;-63
2023/04/28 03:48:35;;;;;;;11.17;10.00;;;9.50;1.00;;;;;;5076796;28;21076;-63
2023/04/28 03:51:02;;;;;;;11.90;9.40;;;9.50;1.00;;;;;;5077192;28;20825;-63
2023/04/28 03:53:29;;;;;;;9.93;8.90;;;9.50;1.00;;;;;;5076369;28;20446;-63
2023/04/28 03:55:57;;;;;;;10.40;9.30;;;9.50;1.00;;;;;;5076519;28;20495;-63
2023/04/28 03:58:24;;;;;;;11.10;10.00;;;9.50;1.00;;;;;;5076760;28;20762;-62
2023/04/28 04:00:53;;;;;;;11.30;9.57;;;9.50;1.00;;;;;;5076994;28;20472;-63
2023/04/28 04:03:21;;;;;;;10.07;9.07;;;9.60;1.00;;;;;;5076231;28;20504;-63
2023/04/28 04:05:49;;;;;;;12.07;9.60;;;9.50;1.00;;;;;;5076830;28;20899;-63
2023/04/28 04:08:16;;;;;;;13.70;9.77;;;9.50;1.00;;;;;;5076393;28;20559;-62
2023/04/28 04:10:43;;;;;;;11.70;9.00;;;9.50;1.00;;;;;;5076935;28;20564;-64
2023/04/28 04:13:10;;;;;;;14.10;9.30;;;9.50;1.00;;;;;;5076054;28;20466;-63
2023/04/28 04:15:37;;;;;;;12.83;10.30;;;9.50;1.00;;;;;;5075991;28;20467;-63
2023/04/28 04:18:06;;;;;;;14.43;9.07;;;9.50;1.00;;;;;;5076502;28;20518;-63
2023/04/28 04:20:33;;;;;;;11.37;9.20;;;9.50;1.00;;;;;;5076429;28;20453;-63
2023/04/28 04:23:02;;;;;;;12.43;9.90;;;9.40;1.00;;;;;;5060230;28;20954;-63
2023/04/28 04:25:31;;;;;;;12.77;10.10;;;9.40;1.00;;;;;;5059526;28;20465;-63
2023/04/28 04:27:58;;;;;;;16.90;10.40;;;9.40;1.00;;;;;;5059629;28;20934;-63
2023/04/28 04:30:25;;;;;;;11.83;9.70;;;9.40;1.00;;;;;;5060131;28;20502;-63
2023/04/28 04:32:54;;;;;;;11.10;9.97;;;9.40;1.00;;;;;;5059976;28;20470;-63
2023/04/28 04:35:22;;;;;;;13.70;9.40;;;9.40;1.00;;;;;;5065303;28;20542;-63
2023/04/28 04:37:50;;;;;;;12.00;10.37;;;9.30;1.00;;;;;;5079762;28;20484;-63
2023/04/28 04:40:17;;;;;;;13.40;9.60;;;9.40;1.00;;;;;;5079971;28;20465;-63
2023/04/28 04:42:44;;;;;;;11.23;9.13;;;9.40;1.00;;;;;;5079928;28;20751;-62
2023/04/28 04:45:12;;;;;;;11.87;9.50;;;9.40;1.00;;;;;;5079802;28;20465;-62
2023/04/28 04:47:43;;;;;;;10.57;9.47;;;9.40;1.00;;;;;;5079798;28;20917;-63
2023/04/28 04:50:11;;;;;;;10.40;8.63;;;9.50;1.00;;;;;;5079118;28;20786;-63
2023/04/28 04:52:40;;;;;;;9.90;8.70;;;9.50;1.00;;;;;;5079145;28;20762;-63
2023/04/28 04:55:09;;;;;;;14.23;9.80;;;9.60;1.00;;;;;;5079148;28;20560;-63
2023/04/28 04:57:37;;;;;;;11.80;9.40;;;9.60;1.00;;;;;;5079077;28;20469;-62
2023/04/28 05:00:05;;;;;;;10.83;9.73;;;9.60;1.00;;;;;;5062692;28;20454;-62
2023/04/28 05:02:32;;;;;;;11.20;9.60;;;9.60;1.00;;;;;;5059474;28;20470;-62
2023/04/28 05:05:00;;;;;;;11.40;10.30;;;9.70;1.00;;;;;;5059307;28;20466;-62
2023/04/28 05:07:27;;;;;;;9.27;8.37;;;9.60;1.00;;;;;;5059238;28;20466;-63
2023/04/28 05:09:56;;;;;;;9.83;8.77;;;9.70;1.00;;;;;;5072882;28;20490;-63
2023/04/28 05:12:23;;;;;;;11.17;8.90;;;9.70;1.00;;;;;;5077910;28;20799;-63
2023/04/28 05:14:50;;;;;;;9.73;8.70;;;9.70;1.00;;;;;;5076413;28;20461;-62
2023/04/28 05:17:17;;;;;;;10.63;8.60;;;9.80;1.00;;;;;;5075988;28;20556;-62
2023/04/28 05:19:45;;;;;;;12.00;8.57;;;9.80;1.00;;;;;;5076040;28;20540;-62
2023/04/28 05:22:12;;;;;;;12.10;8.33;;;9.90;1.00;;;;;;5076915;28;20560;-63
2023/04/28 05:24:39;;;;;;;12.40;8.10;;;10.00;1.00;;;;;;5075561;28;20465;-62
2023/04/28 05:27:08;;;;;;;12.20;8.20;;;10.00;1.00;;;;;;5076626;28;20432;-62
2023/04/28 05:29:35;;;;;;;9.77;8.50;;;10.00;1.00;;;;;;5076025;28;21037;-62
2023/04/28 05:32:02;;;;;;;10.03;8.07;;;10.00;1.00;;;;;;5076623;28;20449;-62
2023/04/28 05:34:30;;;;;;;9.40;7.67;;;10.00;1.00;;;;;;5076980;28;20501;-62
2023/04/28 05:36:57;;;;;;;8.30;7.50;;;10.00;1.00;;;;;;5077606;28;20951;-63
2023/04/28 05:39:24;;;;;;;9.40;8.00;;;10.10;1.00;;;;;;5077669;28;20894;-66
2023/04/28 05:41:51;;;;;;;10.83;8.90;;;10.10;1.00;;;;;;5077131;28;20549;-66
2023/04/28 05:44:20;;;;;;;9.23;8.23;;;10.20;1.00;;;;;;5078002;28;20461;-66
2023/04/28 05:46:47;;;;;;;9.97;8.40;;;10.20;1.00;;;;;;5078267;28;20461;-66
2023/04/28 05:49:14;;;;;;;9.63;8.30;;;10.20;1.00;;;;;;5078334;28;20524;-65
2023/04/28 05:51:42;;;;;;;10.47;8.07;;;10.20;1.00;;;;;;5078550;28;20522;-65
2023/04/28 05:54:09;;;;;;;8.97;7.67;;;10.30;1.00;;;;;;5078597;28;20560;-66
2023/04/28 05:56:37;;;;;;;10.07;8.17;;;10.30;1.00;;;;;;5076302;28;20475;-65
2023/04/28 05:59:04;;;;;;;9.00;7.17;;;10.40;1.00;;;;;;5074763;28;20773;-66
2023/04/28 06:01:33;;;;;;;9.80;8.57;;;10.40;1.00;;;;;;5073257;28;20497;-65
2023/04/28 06:04:00;;;;;;;11.37;10.20;;;10.40;1.00;;;;;;5075545;28;20889;-65
2023/04/28 06:06:27;;;;;;;8.90;7.97;;;10.40;1.00;;;;;;5075825;28;20454;-64
2023/04/28 06:08:57;;;;;;;11.53;8.63;;;10.40;1.00;;;;;;5075759;28;20464;-65
2023/04/28 06:11:24;;;;;;;10.37;7.70;;;10.40;1.00;;;;;;5076211;28;20453;-65
2023/04/28 06:13:51;;;;;;;10.60;8.80;;;10.40;1.00;;;;;;5076410;28;20481;-64
2023/04/28 06:16:19;;;;;;;12.30;8.90;;;10.50;1.00;;;;;;5076278;28;20449;-65
2023/04/28 06:18:47;;;;;;;15.87;11.13;;;10.50;1.00;;;;;;5076424;28;20560;-65
2023/04/28 06:21:17;;;;;;;12.13;10.90;;;10.50;1.00;;;;;;5076327;28;20455;-65
2023/04/28 06:23:44;;;;;;;33.70;15.27;;;10.50;1.00;;;;;;5074135;28;20450;-65
2023/04/28 06:26:11;;;;;;;13.00;11.70;;;10.60;1.00;;;;;;5076652;28;20464;-64
2023/04/28 06:28:38;;;;;;;19.53;17.80;;;10.70;1.00;;;;;;5076231;28;20529;-65
2023/04/28 06:31:06;;;;;;;11.40;9.37;;;10.70;1.00;;;;;;5074791;28;20572;-65
2023/04/28 06:33:34;;;;;;;11.20;8.40;;;10.60;1.00;;;;;;5075923;28;20913;-64
2023/04/28 06:36:04;;;;;;;9.70;8.57;;;10.70;1.00;;;;;;5075863;28;20457;-65
2023/04/28 06:38:31;;;;;;;12.13;8.90;;;10.80;1.00;;;;;;5073761;28;20467;-65
2023/04/28 06:40:58;;;;;;;11.17;9.13;;;10.90;1.00;;;;;;5076784;28;20949;-65
2023/04/28 06:43:25;;;;;;;12.20;9.17;;;11.20;1.00;;;;;;5075538;28;20461;-65
2023/04/28 06:45:52;;;;;;;10.73;8.03;;;11.40;1.00;;;;;;5056810;28;20483;-66
2023/04/28 06:48:20;;;;;;;16.13;10.47;;;11.40;1.00;;;;;;5057315;28;20796;-66
2023/04/28 06:50:47;;;;;;;13.03;8.70;;;11.50;1.00;;;;;;5054423;28;20846;-66
2023/04/28 06:53:16;;;;;;;15.50;8.53;;;11.50;1.00;;;;;;5053449;28;20809;-67
2023/04/28 06:55:43;;;;;;;13.33;10.23;;;11.40;1.00;;;;;;5054434;28;20498;-67
2023/04/28 06:58:10;;;;;;;11.53;9.00;;;11.50;1.00;;;;;;5053899;28;20462;-65
2023/04/28 07:00:38;;;;;;;9.13;8.10;;;11.70;1.00;;;;;;5055335;28;20557;-68
2023/04/28 07:03:05;;;;;;;12.10;8.70;;;11.80;1.00;;;;;;5055107;28;20576;-65
2023/04/28 07:05:35;;;;;;;11.53;9.27;;;11.90;1.00;;;;;;5054675;28;20564;-68
2023/04/28 07:08:02;;;;;;;13.53;10.00;;;12.00;1.00;;;;;;5056232;28;20887;-66
2023/04/28 07:10:31;;;;;;;10.03;9.13;;;11.90;1.00;;;;;;5056962;28;20866;-65
2023/04/28 07:12:59;;;;;;;9.60;8.60;;;11.90;1.00;;;;;;5057034;28;20872;-68
2023/04/28 07:15:26;;;;;;;10.27;8.60;;;11.90;1.00;;;;;;5057352;28;20755;-66
2023/04/28 07:17:54;;;;;;;9.30;8.40;;;12.00;1.00;;;;;;5056882;28;20484;-65
2023/04/28 07:20:21;;;;;;;9.83;8.83;;;11.90;1.00;;;;;;5056832;28;20455;-64
2023/04/28 07:22:48;;;;;;;10.90;9.77;;;12.00;1.00;;;;;;5055970;28;20986;-64
2023/04/28 07:25:16;;;;;;;9.60;8.60;;;12.10;1.00;;;;;;5055131;28;20535;-66
2023/04/28 07:27:46;;;;;;;12.53;9.13;;;12.30;1.00;;;;;;5054865;28;21004;-65
2023/04/28 07:30:14;;;;;;;10.20;8.93;;;12.40;1.00;;;;;;5055146;28;20504;-64
2023/04/28 07:32:42;;;;;;;9.73;8.73;;;12.50;99.90;;;;;;5054881;28;20463;-64
2023/04/28 07:35:10;;;;;;;11.10;8.00;;;12.50;99.90;;;;;;5055315;28;20458;-63
2023/04/28 07:37:37;;;;;;;9.87;8.83;;;12.30;99.90;;;;;;5055666;28;20462;-64
2023/04/28 07:40:06;;;;;;;9.90;8.90;;;12.20;1.00;;;;;;5056757;28;20464;-64
2023/04/28 07:42:33;;;;;;;11.10;7.93;;;12.20;1.00;;;;;;5056746;28;20462;-65
2023/04/28 07:45:02;;;;;;;10.03;8.20;;;12.20;1.00;;;;;;5056486;28;20845;-63
2023/04/28 07:47:29;;;;;;;9.57;8.53;;;12.40;1.00;;;;;;5057816;28;20817;-65
2023/04/28 07:49:57;;;;;;;9.20;8.13;;;12.50;1.00;;;;;;5075338;28;20485;-65
2023/04/28 07:52:25;;;;;;;9.80;7.63;;;12.60;99.90;;;;;;5069955;28;20465;-64
2023/04/28 07:54:52;;;;;;;9.23;8.17;;;12.70;99.90;;;;;;5075121;28;20515;-64
2023/04/28 07:57:19;;;;;;;10.63;8.47;;;12.90;99.90;;;;;;5080465;28;20497;-63
2023/04/28 07:59:46;;;;;;;12.00;8.33;;;12.80;99.90;;;;;;5080339;28;20453;-63
2023/04/28 08:02:15;;;;;;;12.53;8.27;;;12.60;99.90;;;;;;5080210;28;20484;-62
2023/04/28 08:04:42;;;;;;;9.57;8.20;;;12.50;99.90;;;;;;5080563;28;20466;-63
2023/04/28 08:07:10;;;;;;;9.80;8.80;;;12.50;99.90;;;;;;5080199;28;20916;-62
2023/04/28 08:09:37;;;;;;;8.30;7.60;;;12.50;99.90;;;;;;5080333;28;20457;-63
2023/04/28 08:12:04;;;;;;;9.10;7.83;;;12.40;99.90;;;;;;5080367;28;20489;-64
2023/04/28 08:14:32;;;;;;;9.70;8.60;;;12.50;1.00;;;;;;5080026;28;20461;-63
2023/04/28 08:16:59;;;;;;;12.80;8.60;;;12.60;99.90;;;;;;5080555;28;20518;-63
2023/04/28 08:19:28;;;;;;;11.70;9.13;;;12.70;99.90;;;;;;5079800;28;20544;-62
2023/04/28 08:21:55;;;;;;;9.70;7.70;;;12.70;99.90;;;;;;5079816;28;20489;-62
2023/04/28 08:24:22;;;;;;;9.47;8.47;;;12.70;99.90;;;;;;5079911;28;20933;-63
2023/04/28 08:26:49;;;;;;;10.90;8.93;;;12.50;99.90;;;;;;5079757;28;20469;-64
2023/04/28 08:29:17;;;;;;;9.47;8.33;;;12.20;1.00;;;;;;5078891;28;20493;-63
2023/04/28 08:31:44;;;;;;;12.77;9.37;;;12.30;1.00;;;;;;5078235;28;20583;-63
2023/04/28 08:34:11;;;;;;;12.80;9.37;;;12.30;1.00;;;;;;5077815;28;20471;-64
2023/04/28 08:36:40;;;;;;;10.50;9.40;;;12.30;1.00;;;;;;5078212;28;20463;-63
2023/04/28 08:39:08;;;;;;;9.27;8.33;;;12.30;1.00;;;;;;5078008;28;20457;-63
2023/04/28 08:41:39;;;;;;;11.83;9.50;;;12.50;1.00;;;;;;5077644;28;20457;-63
2023/04/28 08:44:09;;;;;;;10.90;8.40;;;12.60;1.00;;;;;;5078936;28;20763;-63
2023/04/28 08:46:40;;;;;;;10.10;8.60;;;12.70;1.00;;;;;;5079404;28;20465;-63
2023/04/28 08:49:12;;;;;;;12.80;9.70;;;12.80;1.00;;;;;;5079252;28;20664;-63
2023/04/28 08:51:46;;;;;;;11.40;8.83;;;12.90;1.00;;;;;;5079938;28;20489;-63
2023/04/28 08:54:16;;;;;;;13.83;10.10;;;12.90;99.90;;;;;;5079416;28;20536;-62
2023/04/28 08:56:44;;;;;;;10.10;8.93;;;12.80;99.90;;;;;;5079538;28;20469;-63
2023/04/28 08:59:12;;;;;;;12.30;9.20;;;12.80;1.00;;;;;;5079440;28;20909;-62
2023/04/28 09:01:40;;;;;;;11.80;10.60;;;12.90;1.00;;;;;;5079442;28;20461;-63
2023/04/28 09:04:09;;;;;;;13.43;9.50;;;13.10;1.00;;;;;;5079674;28;20457;-63
2023/04/28 09:06:38;;;;;;;17.70;9.63;;;13.30;1.00;;;;;;5078907;28;20465;-63
2023/04/28 09:09:28;;;;;;;11.23;10.03;;;13.40;1.00;;;;;;5079391;28;20913;-62
2023/04/28 09:11:58;;;;;;;11.60;8.13;;;13.70;1.00;;;;;;5079437;28;20497;-63
2023/04/28 09:14:26;;;;;;;11.47;9.60;;;13.90;99.90;;;;;;5079543;28;20462;-64
2023/04/28 09:16:53;;;;;;;11.03;8.90;;;14.10;99.90;;;;;;5078666;28;20838;-63
2023/04/28 09:19:20;;;;;;;10.70;8.73;;;14.00;99.90;;;;;;5078507;28;20980;-62
2023/04/28 09:21:49;;;;;;;10.10;9.10;;;14.10;99.90;;;;;;5078978;28;20500;-62
2023/04/28 09:24:31;;;;;;;12.97;9.70;;;14.10;99.90;;;;;;5079060;28;20494;-62
2023/04/28 09:26:59;;;;;;;9.83;8.80;;;14.20;99.90;;;;;;5079012;28;20891;-63
2023/04/28 09:29:27;;;;;;;12.23;9.80;;;14.20;99.90;;;;;;5079174;28;20565;-62
2023/04/28 09:31:55;;;;;;;9.67;8.67;;;14.30;99.90;;;;;;5079124;28;20588;-62
2023/04/28 09:34:22;;;;;;;10.10;8.77;;;14.40;99.90;;;;;;5078233;28;20468;-63
2023/04/28 09:36:49;;;;;;;10.70;8.40;;;14.30;99.90;;;;;;5078898;28;20477;-63
2023/04/28 09:39:31;;;;;;;11.67;9.27;;;14.30;99.90;;;;;;5078840;28;20555;-63
2023/04/28 09:42:02;;;;;;;10.70;9.70;;;14.10;99.90;;;;;;5078873;28;20457;-64
2023/04/28 09:44:29;;;;;;;14.60;9.70;;;14.00;99.90;;;;;;5077992;28;20472;-57
2023/04/28 09:46:57;;;;;;;11.53;10.03;;;13.80;1.00;;;;;;5078527;28;20465;-63
2023/04/28 09:49:24;;;;;;;10.83;9.73;;;13.50;1.00;;;;;;5078437;28;20473;-62
2023/04/28 09:51:51;;;;;;;12.13;10.10;;;13.40;1.00;;;;;;5077888;28;20564;-63
2023/04/28 09:54:21;;;;;;;12.30;10.97;;;13.40;1.00;;;;;;5077857;28;20555;-63
2023/04/28 09:56:51;;;;;;;12.93;9.80;;;13.50;1.00;;;;;;5078051;28;20461;-64
2023/04/28 09:59:18;;;;;;;11.50;10.00;;;13.50;1.00;;;;;;5077843;28;20482;-65
2023/04/28 10:01:46;;;;;;;12.17;10.87;;;13.50;1.00;;;;;;5076215;28;20438;-66
2023/04/28 10:04:14;;;;;;;13.50;9.83;;;13.60;1.00;;;;;;5078126;28;20898;-65
2023/04/28 10:06:42;;;;;;;12.63;10.67;;;13.70;1.00;;;;;;5077412;28;20503;-66
2023/04/28 10:09:11;;;;;;;12.03;10.80;;;13.80;1.00;;;;;;5077697;28;20469;-65
2023/04/28 10:11:39;;;;;;;11.97;10.77;;;13.90;1.00;;;;;;5077903;28;20599;-66
2023/04/28 10:14:11;;;;;;;13.97;11.07;;;13.90;1.00;;;;;;5078371;28;20461;-65
2023/04/28 10:16:38;;;;;;;11.27;9.60;;;14.00;1.00;;;;;;5076393;28;20475;-66
2023/04/28 10:19:06;;;;;;;14.00;10.73;;;14.20;1.00;;;;;;5075338;28;20599;-65
2023/04/28 10:21:40;;;;;;;10.90;9.80;;;14.10;1.00;;;;;;5068283;28;20478;-66
2023/04/28 10:24:15;;;;;;;11.37;10.17;;;14.10;1.00;;;;;;5075149;28;20443;-66
2023/04/28 10:27:07;;;;;;;12.07;10.33;;;14.00;1.00;;;;;;5076248;28;20548;-66
2023/04/28 10:29:36;;;;;;;11.33;9.47;;;14.00;1.00;;;;;;5076236;28;21080;-66
2023/04/28 10:32:17;;;;;;;11.30;10.10;;;14.00;1.00;;;;;;5077686;28;20579;-66
2023/04/28 10:34:45;;;;;;;12.20;9.93;;;13.90;1.00;;;;;;5075755;28;20476;-66
2023/04/28 10:37:13;;;;;;;12.47;9.53;;;13.80;1.00;;;;;;5057203;28;20556;-66
2023/04/28 10:39:41;;;;;;;12.33;10.10;;;13.80;1.00;;;;;;5057847;28;20473;-67
2023/04/28 10:42:41;;;;;;;11.07;9.70;;;13.70;1.00;;;;;;5057733;28;20528;-63
2023/04/28 10:45:10;;;;;;;9.90;8.90;;;13.60;1.00;;;;;;5057514;28;20568;-64
2023/04/28 10:48:05;;;;;;;11.40;10.23;;;13.70;1.00;;;;;;5057667;28;20556;-64
2023/04/28 10:50:32;;;;;;;10.93;9.83;;;13.70;1.00;;;;;;5056642;28;20458;-65
2023/04/28 10:52:59;;;;;;;9.93;8.93;;;13.70;1.00;;;;;;5057398;28;20469;-65
2023/04/28 10:55:29;;;;;;;10.73;9.77;;;13.70;1.00;;;;;;5071881;28;20757;-64
2023/04/28 10:58:29;;;;;;;9.70;8.80;;;13.70;1.00;;;;;;5074613;28;20871;-63
2023/04/28 11:01:24;;;;;;;11.17;10.07;;;13.60;1.00;;;;;;5050026;28;20891;-64
2023/04/28 11:03:58;;;;;;;10.53;9.53;;;13.50;1.00;;;;;;5056311;28;20561;-64
2023/04/28 11:06:28;;;;;;;12.47;10.10;;;13.40;1.00;;;;;;5055539;28;20454;-64
2023/04/28 11:08:59;;;;;;;9.70;8.70;;;13.50;1.00;;;;;;5055185;28;20466;-63
2023/04/28 11:11:27;;;;;;;9.60;8.80;;;13.70;1.00;;;;;;5056034;28;20525;-64
2023/04/28 11:13:55;;;;;;;9.53;8.63;;;13.70;1.00;;;;;;5056864;28;20461;-64
2023/04/28 11:16:25;;;;;;;8.27;7.57;;;13.80;1.00;;;;;;5068566;28;20497;-64
2023/04/28 11:19:04;;;;;;;8.80;7.90;;;14.00;1.00;;;;;;5073706;28;20458;-65
2023/04/28 11:21:32;;;;;;;8.00;7.20;;;14.20;1.00;;;;;;5073980;28;20767;-65
2023/04/28 11:23:59;;;;;;;7.43;6.73;;;14.40;1.00;;;;;;5071159;28;20465;-66
2023/04/28 11:26:28;;;;;;;7.70;7.10;;;14.50;1.00;;;;;;5072266;28;20544;-65
2023/04/28 11:28:57;;;;;;;8.40;7.60;;;14.50;1.00;;;;;;5072522;28;20492;-68
2023/04/28 11:31:27;;;;;;;7.30;6.70;;;14.60;1.00;;;;;;5075989;28;20489;-68
2023/04/28 11:33:58;;;;;;;6.90;6.20;;;14.50;1.00;;;;;;5076915;28;20760;-69
2023/04/28 11:36:32;;;;;;;6.53;5.93;;;14.40;1.00;;;;;;5076433;28;20894;-68
2023/04/28 11:38:59;;;;;;;7.60;6.97;;;14.20;1.00;;;;;;5075135;28;20862;-69
2023/04/28 11:41:27;;;;;;;7.33;6.63;;;14.20;1.00;;;;;;5075556;28;20890;-68
2023/04/28 11:43:54;;;;;;;6.73;6.03;;;14.20;1.00;;;;;;5072762;28;20641;-69
2023/04/28 11:46:22;;;;;;;10.83;6.83;;;14.00;1.00;;;;;;5075024;28;20465;-67
2023/04/28 11:49:01;;;;;;;7.20;6.60;;;14.10;1.00;;;;;;5075718;28;20457;-66
2023/04/28 11:51:33;;;;;;;8.80;8.00;;;14.30;8.00;;;;;;5076166;28;20489;-67
2023/04/28 11:54:01;;;;;;;8.80;8.00;;;14.30;1.00;;;;;;5075989;28;20526;-70
2023/04/28 11:56:29;;;;;;;9.87;7.87;;;14.30;1.00;;;;;;5076666;28;20460;-69
2023/04/28 11:59:04;;;;;;;9.27;7.60;;;14.30;1.00;;;;;;5077677;28;20555;-67
2023/04/28 12:01:32;;;;;;;11.17;8.93;;;14.30;26.50;;;;;;5079081;28;20471;-67
2023/04/28 12:04:02;;;;;;;10.67;9.77;;;14.60;99.90;;;;;;5079517;28;20581;-67
2023/04/28 12:06:29;;;;;;;11.03;10.03;;;14.70;15.70;;;;;;5079806;28;20493;-67
2023/04/28 12:09:01;;;;;;;10.47;9.57;;;14.70;1.00;;;;;;5079602;28;20819;-68
2023/04/28 12:11:28;;;;;;;11.43;10.40;;;14.70;15.70;;;;;;5080542;28;20507;-69
2023/04/28 12:14:06;;;;;;;11.83;10.77;;;14.60;13.20;;;;;;5080453;28;20559;-67
2023/04/28 12:16:43;;;;;;;12.00;10.90;;;14.70;99.90;;;;;;5077853;28;20479;-67
2023/04/28 12:19:14;;;;;;;12.10;11.00;;;14.90;99.90;;;;;;5078590;28;20476;-67
2023/04/28 12:21:41;;;;;;;12.87;11.73;;;15.20;99.90;;;;;;5079069;28;20497;-66
2023/04/28 12:24:20;;;;;;;11.50;10.40;;;15.40;99.90;;;;;;5078759;28;20897;-66
2023/04/28 12:26:48;;;;;;;12.67;11.47;;;15.40;1.00;;;;;;5078585;28;20564;-66
2023/04/28 12:29:38;;;;;;;13.20;11.90;;;15.50;1.00;;;;;;5077838;28;20488;-66
2023/04/28 12:32:06;;;;;;;13.97;12.87;;;15.70;1.00;;;;;;5077300;28;20965;-65
2023/04/28 12:34:35;;;;;;;14.10;12.90;;;15.70;1.00;;;;;;5075144;28;20464;-65
2023/04/28 12:37:04;;;;;;;14.00;12.80;;;15.80;1.00;;;;;;5077893;28;20459;-65
2023/04/28 12:39:32;;;;;;;13.77;12.60;;;15.90;1.00;;;;;;5076519;28;20461;-65
2023/04/28 12:42:01;;;;;;;13.43;12.33;;;16.10;1.00;;;;;;5078562;28;20461;-65
2023/04/28 12:44:34;;;;;;;12.83;11.63;;;16.30;1.00;;;;;;5079433;28;20744;-65
2023/04/28 12:47:02;;;;;;;12.37;11.07;;;16.60;1.00;;;;;;5079707;28;20905;-65
2023/04/28 12:49:30;;;;;;;12.30;11.30;;;17.40;1.00;;;;;;5079748;28;20461;-64
2023/04/28 12:51:58;;;;;;;10.83;9.93;;;17.90;1.00;;;;;;5079600;28;20522;-65
2023/04/28 12:54:25;;;;;;;11.00;10.00;;;18.00;1.00;;;;;;5078881;28;20852;-65